Terminal Aerodrome Forecast
Issued by NWS Spokane, WA

Home | Current Version | Previous Version | Text Only | Print | Product List | Glossary On
Versions: 1 2 3 4 5 6 7 8 9 10 11 12 13 14 15 16 17 18 19 20 21 22 23 24 25 26 27 28 29 30 31 32 33 34 35 36
000
FTUS46 KOTX 200611 CCA
TAFGEG
TAF COR
KGEG 200611Z 2006/2106 21015G28KT P6SM -RA OVC080
     FM200900 19014G20KT 6SM -RA BR BKN020 OVC040
     FM201300 20013G22KT 6SM -RA BR BKN011 OVC020
      TEMPO 2018/2020 3SM RA BR
     FM202200 22016G23KT P6SM BKN025
     FM210200 22009KT P6SM SCT012 BKN200=

USA.gov is the U.S. government's official web portal to all federal, state and local government web resources and services.